Auke Bay, Alaska
Current Conditions -  °F | °C
As of 10:09 PM on Wednesday 17 Dec 2014 (Local Time) from PAJN Reporting Station
Moderate Fog Moderate Fog  
Wind Chill: 32°   Ceiling: 200
Heat Index: 32°   Visibility: 0.25mi
Dew Point: 30°   Wind: 0mph
Humidity: 92%   Direction: NA
Pressure: 29.72"   Gusts: NA
Location:  58.38°N, 134.67°W
Report Text: PAJN 180709Z 00000KT 1/4SM R08/1600V2200FT FG VV002 00/M01 A2972 RMK AO2 T00001011
Loading
Personal Weather Stations






























Interactive Weather Map New forecast layout! Learn more

10-Day Weather Forecast

Advertisements
Track Severe Weather on mobile